Terminal Aerodrome Forecast
Issued by NWS Mt. Holly, NJ

Home | Current Version | Previous Version | Text Only | Print | Product List | Glossary On
Versions: 1 2 3 4 5 6 7 8 9 10 11 12 13 14 15 16 17 18 19 20 21 22 23 24
000
FTUS41 KPHI 051519 AAA
TAFPHL
TAF AMD
KPHL 051519Z 0515/0618 25008KT P6SM FEW070 BKN100
     FM051900 27008KT P6SM BKN050
      TEMPO 0520/0524 6SM -SHRA
     FM060000 VRB04KT P6SM -SHRA OVC050
     FM060900 02004KT P6SM OVC050
     FM061500 05006KT P6SM SCT030 OVC050=

USA.gov is the U.S. government's official web portal to all federal, state and local government web resources and services.